Time;durP1;ratioP1;P1;durP2;ratioP2;P2;SDS_P1;SDS_P2;PMS_P1;PMS_P2;Temp;Humidity;BMP_temperature;BMP_pressure;BME280_temperature;BME280_humidity;BME280_pressure;Samples;Min_cycle;Max_cycle;Signal;HPM_P1;HPM_P2
2022/04/21 00:01:55;;;;;;;1.10;1.00;;;17.00;62.30;;;;;;5185953;28;20206;-61
2022/04/21 00:04:48;;;;;;;1.97;1.10;;;16.90;62.30;;;;;;5185120;28;20195;-61
2022/04/21 00:07:40;;;;;;;3.03;1.10;;;16.90;62.30;;;;;;5184994;28;20202;-61
2022/04/21 00:10:32;;;;;;;1.90;1.20;;;16.90;62.30;;;;;;5184421;28;20205;-61
2022/04/21 00:13:25;;;;;;;2.07;1.20;;;16.90;62.20;;;;;;5185389;28;20717;-61
2022/04/21 00:16:17;;;;;;;2.20;1.20;;;16.90;62.30;;;;;;5202856;28;20189;-61
2022/04/21 00:19:10;;;;;;;2.23;1.00;;;16.90;62.30;;;;;;5197757;28;20206;-60
2022/04/21 00:25:12;;;;;;;1.13;0.83;;;16.90;62.20;;;;;;5221353;28;20184;-60
2022/04/21 00:28:06;;;;;;;0.77;0.70;;;16.90;62.20;;;;;;5218269;28;20202;-61
2022/04/21 00:30:59;;;;;;;1.20;0.97;;;16.90;62.20;;;;;;5224980;28;20197;-60
2022/04/21 00:33:51;;;;;;;1.57;1.20;;;16.90;62.30;;;;;;5222519;28;20331;-61
2022/04/21 00:36:44;;;;;;;1.37;1.00;;;16.90;62.20;;;;;;5223834;28;20204;-61
2022/04/21 00:39:36;;;;;;;1.77;0.80;;;16.90;62.20;;;;;;5207224;28;20201;-61
2022/04/21 00:42:28;;;;;;;1.13;1.00;;;16.90;62.30;;;;;;5204157;28;20212;-60
2022/04/21 00:45:20;;;;;;;2.00;0.90;;;16.90;62.20;;;;;;5197924;28;20186;-61
2022/04/21 00:48:14;;;;;;;1.00;0.77;;;16.90;62.20;;;;;;5204800;28;20254;-60
2022/04/21 00:51:06;;;;;;;0.80;0.80;;;16.90;62.30;;;;;;5210687;28;20199;-60
2022/04/21 00:53:58;;;;;;;1.10;0.97;;;16.90;62.30;;;;;;5205341;28;20601;-61
2022/04/21 00:56:50;;;;;;;1.93;0.90;;;16.90;62.20;;;;;;5204555;28;20200;-60
2022/04/21 00:59:44;;;;;;;1.13;0.90;;;16.90;62.20;;;;;;5205092;28;20201;-61
2022/04/21 01:02:49;;;;;;;1.00;0.70;;;16.90;62.20;;;;;;5205265;28;20276;-61
2022/04/21 01:05:43;;;;;;;2.00;0.93;;;16.90;62.80;;;;;;5205024;28;20186;-61
2022/04/21 01:08:37;;;;;;;1.37;1.00;;;16.90;62.20;;;;;;5209261;28;20277;-60
2022/04/21 01:11:29;;;;;;;1.97;1.20;;;16.90;62.20;;;;;;5204779;28;20201;-60
2022/04/21 01:14:22;;;;;;;1.07;0.90;;;16.90;62.20;;;;;;5199021;28;20272;-61
2022/04/21 01:17:14;;;;;;;1.23;0.83;;;16.90;62.20;;;;;;5199401;28;20204;-60
2022/04/21 01:20:08;;;;;;;1.13;0.97;;;16.90;62.20;;;;;;5184314;28;20194;-61
2022/04/21 01:23:02;;;;;;;1.40;1.00;;;16.90;62.20;;;;;;5204414;28;20209;-60
2022/04/21 01:25:56;;;;;;;2.20;1.00;;;16.90;62.20;;;;;;5207150;28;20197;-60
2022/04/21 01:28:50;;;;;;;1.17;0.90;;;16.90;62.20;;;;;;5206536;28;20194;-60
2022/04/21 01:31:42;;;;;;;1.47;0.90;;;16.90;62.20;;;;;;5207676;28;20198;-61
2022/04/21 01:34:35;;;;;;;1.10;0.93;;;16.90;62.20;;;;;;5205046;28;20214;-59
2022/04/21 01:43:47;;;;;;;1.10;1.00;;;16.90;62.10;;;;;;5205163;28;20204;-61
2022/04/21 01:46:39;;;;;;;1.40;0.80;;;16.90;62.10;;;;;;5205367;28;20682;-60
2022/04/21 01:49:31;;;;;;;1.30;0.90;;;16.90;62.20;;;;;;5193587;28;20240;-60
2022/04/21 01:52:24;;;;;;;1.97;1.00;;;16.90;62.20;;;;;;5206555;28;20202;-61
2022/04/21 01:55:16;;;;;;;1.17;1.07;;;16.90;62.20;;;;;;5206230;28;20612;-60
2022/04/21 01:58:09;;;;;;;1.33;1.00;;;16.90;62.10;;;;;;5187839;28;20198;-60
2022/04/21 02:01:01;;;;;;;1.07;0.97;;;16.90;62.10;;;;;;5203355;28;20206;-60
2022/04/21 02:03:54;;;;;;;1.10;0.67;;;16.90;62.10;;;;;;5207268;28;20218;-61
2022/04/21 02:06:46;;;;;;;1.20;0.90;;;16.90;62.10;;;;;;5205363;28;20658;-60
2022/04/21 02:09:38;;;;;;;1.40;1.00;;;16.90;62.10;;;;;;5198373;28;20817;-60
2022/04/21 02:12:30;;;;;;;1.10;1.00;;;16.90;62.10;;;;;;5186174;28;20577;-61
2022/04/21 02:15:24;;;;;;;0.87;0.83;;;16.90;62.10;;;;;;5192366;28;20585;-61
2022/04/21 02:18:17;;;;;;;1.07;1.00;;;16.90;62.10;;;;;;5207724;28;20295;-60
2022/04/21 02:21:09;;;;;;;1.43;0.87;;;16.90;62.10;;;;;;5227491;28;20660;-60
2022/04/21 02:24:01;;;;;;;0.80;0.80;;;16.90;62.10;;;;;;5227112;28;20236;-62
2022/04/21 02:26:53;;;;;;;0.90;0.80;;;16.90;62.70;;;;;;5216007;28;20193;-62
2022/04/21 02:29:45;;;;;;;0.80;0.80;;;16.90;62.00;;;;;;5207386;28;20202;-60
2022/04/21 02:32:39;;;;;;;1.10;1.00;;;16.90;62.10;;;;;;5208341;28;20201;-60
2022/04/21 02:35:31;;;;;;;2.00;1.10;;;16.90;62.10;;;;;;5205449;28;20214;-61
2022/04/21 02:38:23;;;;;;;1.73;0.97;;;16.90;62.00;;;;;;5219911;28;20197;-61
2022/04/21 02:41:16;;;;;;;1.30;0.90;;;16.90;62.00;;;;;;5207043;28;20186;-62
2022/04/21 02:44:08;;;;;;;1.13;0.80;;;16.90;62.00;;;;;;5210930;28;20586;-61
2022/04/21 02:47:01;;;;;;;2.10;0.70;;;16.90;62.00;;;;;;5206961;28;20579;-60
2022/04/21 02:49:55;;;;;;;1.83;0.80;;;16.90;62.00;;;;;;5207093;28;20202;-60
2022/04/21 02:52:48;;;;;;;1.00;0.80;;;16.90;62.10;;;;;;5212384;28;20218;-61
2022/04/21 02:58:49;;;;;;;1.23;1.00;;;16.80;61.90;;;;;;5207273;28;20190;-61
2022/04/21 03:01:42;;;;;;;1.20;0.97;;;16.90;62.00;;;;;;5206650;28;20198;-61
2022/04/21 03:04:34;;;;;;;1.33;1.07;;;16.90;62.00;;;;;;5207331;28;20239;-61
2022/04/21 03:07:27;;;;;;;1.73;1.10;;;16.90;61.90;;;;;;5224904;28;20189;-61
2022/04/21 03:10:20;;;;;;;1.20;1.00;;;16.90;61.90;;;;;;5226523;28;20193;-61
2022/04/21 03:13:12;;;;;;;1.20;0.80;;;16.90;61.90;;;;;;5235314;22;20221;-66
2022/04/21 03:16:04;;;;;;;1.03;0.90;;;16.90;61.90;;;;;;5184343;28;20219;-66
2022/04/21 03:18:56;;;;;;;1.57;1.00;;;16.90;62.00;;;;;;5185762;28;20206;-67
2022/04/21 03:25:02;;;;;;;1.27;1.00;;;16.90;61.90;;;;;;5174547;28;20289;-67
2022/04/21 03:27:54;;;;;;;0.90;0.70;;;16.90;62.00;;;;;;5179783;28;20554;-67
2022/04/21 03:30:46;;;;;;;0.77;0.63;;;16.90;62.00;;;;;;5165621;28;20197;-68
2022/04/21 03:33:38;;;;;;;1.40;1.00;;;16.90;61.90;;;;;;5165586;28;20223;-67
2022/04/21 03:36:31;;;;;;;1.20;0.97;;;16.80;61.80;;;;;;5177161;28;20347;-67
2022/04/21 03:39:23;;;;;;;1.00;0.80;;;16.90;61.80;;;;;;5203841;28;20198;-67
2022/04/21 03:42:23;;;;;;;1.57;0.93;;;16.90;61.80;;;;;;5185132;28;20198;-67
2022/04/21 03:45:15;;;;;;;0.70;0.70;;;16.90;61.80;;;;;;5185696;28;20206;-67
2022/04/21 03:48:07;;;;;;;0.87;0.87;;;16.90;62.30;;;;;;5186179;28;20198;-66
2022/04/21 03:51:00;;;;;;;1.00;0.90;;;16.90;61.60;;;;;;5185541;28;20206;-67
2022/04/21 03:53:52;;;;;;;1.17;0.83;;;16.90;61.70;;;;;;5201304;28;20225;-67
2022/04/21 03:56:44;;;;;;;1.00;0.80;;;16.90;61.60;;;;;;5183839;28;20718;-67
2022/04/21 03:59:38;;;;;;;1.03;0.80;;;16.90;61.50;;;;;;5185219;28;20276;-67
2022/04/21 04:02:30;;;;;;;1.20;0.90;;;16.90;61.60;;;;;;5185659;28;20578;-67
2022/04/21 04:05:22;;;;;;;1.03;0.93;;;16.90;61.50;;;;;;5184929;28;20198;-67
2022/04/21 04:11:24;;;;;;;1.07;0.90;;;16.90;61.60;;;;;;5167215;28;20226;-67
2022/04/21 04:14:16;;;;;;;0.97;0.73;;;16.90;61.60;;;;;;5178131;28;20225;-67
2022/04/21 04:17:10;;;;;;;0.80;0.80;;;16.90;61.60;;;;;;5186701;28;20229;-66
2022/04/21 04:20:03;;;;;;;1.47;0.80;;;16.90;62.20;;;;;;5183754;28;20198;-65
2022/04/21 04:22:55;;;;;;;0.73;0.73;;;16.90;61.50;;;;;;5196512;28;20194;-67
2022/04/21 04:25:48;;;;;;;0.90;0.70;;;16.90;61.60;;;;;;5204639;28;20201;-67
2022/04/21 04:28:40;;;;;;;1.20;0.90;;;16.90;61.60;;;;;;5194689;28;20259;-67
2022/04/21 04:31:33;;;;;;;1.60;0.90;;;16.90;61.50;;;;;;5202731;28;20204;-66
2022/04/21 04:34:26;;;;;;;1.33;0.83;;;17.00;61.60;;;;;;5200626;28;20293;-67
2022/04/21 04:37:18;;;;;;;1.10;0.83;;;17.00;61.60;;;;;;5184172;28;20662;-66
2022/04/21 04:40:11;;;;;;;0.93;0.80;;;17.00;61.60;;;;;;5186065;28;20195;-67
2022/04/21 04:43:03;;;;;;;0.80;0.73;;;17.00;61.60;;;;;;5184579;28;20194;-66
2022/04/21 04:49:07;;;;;;;1.10;0.70;;;16.90;61.40;;;;;;5190907;28;20197;-66
2022/04/21 04:52:00;;;;;;;1.10;0.90;;;17.00;61.40;;;;;;5187769;28;20198;-66
2022/04/21 04:54:52;;;;;;;1.33;0.90;;;17.00;61.40;;;;;;5184032;28;20217;-67
2022/04/21 04:57:46;;;;;;;1.00;0.90;;;17.00;61.50;;;;;;5183220;28;20194;-67
2022/04/21 05:00:38;;;;;;;2.13;1.40;;;16.90;61.40;;;;;;5181001;28;20254;-68
2022/04/21 05:03:30;;;;;;;1.47;1.07;;;17.00;61.40;;;;;;5191912;28;20228;-67
2022/04/21 05:06:22;;;;;;;1.10;1.00;;;16.90;61.30;;;;;;5203646;28;20204;-67
2022/04/21 05:09:17;;;;;;;1.10;0.93;;;17.00;61.30;;;;;;5203415;28;20661;-66
2022/04/21 05:12:10;;;;;;;3.70;1.03;;;17.00;61.20;;;;;;5203773;28;20201;-67
2022/04/21 05:15:03;;;;;;;1.57;1.00;;;17.00;61.10;;;;;;5203747;28;20243;-67
2022/04/21 05:17:56;;;;;;;1.37;0.90;;;16.90;61.10;;;;;;5199907;28;20194;-67
2022/04/21 05:20:48;;;;;;;2.20;1.03;;;16.90;61.00;;;;;;5194864;28;20198;-67
2022/04/21 05:23:41;;;;;;;1.43;1.00;;;16.90;61.10;;;;;;5185272;28;20352;-67
2022/04/21 05:26:37;;;;;;;1.17;0.97;;;16.90;61.10;;;;;;5171739;28;20198;-67
2022/04/21 05:32:40;;;;;;;2.17;1.20;;;16.90;61.20;;;;;;5202921;28;20200;-67
2022/04/21 05:35:33;;;;;;;1.50;1.10;;;16.90;61.20;;;;;;5202477;28;20692;-67
2022/04/21 05:38:26;;;;;;;1.47;1.23;;;17.00;61.20;;;;;;5187394;28;20190;-67
2022/04/21 05:41:19;;;;;;;1.77;1.20;;;16.90;61.20;;;;;;5190860;28;20843;-67
2022/04/21 05:44:14;;;;;;;2.70;1.23;;;16.90;61.20;;;;;;5193094;28;20206;-67
2022/04/21 05:47:07;;;;;;;2.50;1.20;;;16.90;61.20;;;;;;5192360;28;20193;-67
2022/04/21 05:50:00;;;;;;;2.20;1.00;;;17.00;61.30;;;;;;5192677;28;20190;-67
2022/04/21 05:52:55;;;;;;;1.70;1.00;;;17.00;61.30;;;;;;5189197;28;20197;-66
2022/04/21 05:55:47;;;;;;;1.30;0.93;;;17.00;61.20;;;;;;5193128;28;20222;-67
2022/04/21 05:58:39;;;;;;;3.57;1.30;;;17.00;61.30;;;;;;5190706;28;20701;-67
2022/04/21 06:01:33;;;;;;;3.00;1.20;;;17.00;61.30;;;;;;5190779;28;20201;-66
2022/04/21 06:04:25;;;;;;;2.40;1.03;;;17.00;61.30;;;;;;5192397;28;20293;-67
2022/04/21 06:07:17;;;;;;;2.43;1.10;;;17.00;61.30;;;;;;5170014;28;20199;-65
2022/04/21 06:10:10;;;;;;;3.07;1.60;;;17.00;62.00;;;;;;5178252;28;20670;-65
2022/04/21 06:13:02;;;;;;;3.87;2.03;;;17.00;59.70;;;;;;5183330;28;20272;-68
2022/04/21 06:15:55;;;;;;;4.97;2.10;;;16.90;57.70;;;;;;5178584;28;20214;-66
2022/04/21 06:18:50;;;;;;;4.40;1.73;;;16.90;57.20;;;;;;5206772;28;20204;-66
2022/04/21 06:21:42;;;;;;;3.97;1.87;;;16.90;56.10;;;;;;5207371;28;20554;-66
2022/04/21 06:24:35;;;;;;;2.33;1.87;;;16.90;55.10;;;;;;5207804;28;20221;-67
2022/04/21 06:27:27;;;;;;;4.40;1.73;;;16.80;54.20;;;;;;5205948;28;20287;-67
2022/04/21 06:30:20;;;;;;;3.73;2.23;;;16.80;54.10;;;;;;5206075;28;20249;-67
2022/04/21 06:33:12;;;;;;;3.77;2.00;;;16.70;53.60;;;;;;5165720;28;20696;-67
2022/04/21 06:36:07;;;;;;;3.50;1.80;;;16.70;53.90;;;;;;5191276;28;20245;-67
2022/04/21 06:39:00;;;;;;;3.33;2.13;;;16.70;53.30;;;;;;5187036;28;20682;-67
2022/04/21 06:41:52;;;;;;;3.53;2.00;;;16.70;53.50;;;;;;5206062;28;20216;-67
2022/04/21 06:48:04;;;;;;;3.93;1.93;;;16.60;52.80;;;;;;5205267;28;20179;-67
2022/04/21 06:50:56;;;;;;;3.87;2.07;;;16.60;53.10;;;;;;5198079;28;20576;-67
2022/04/21 06:53:50;;;;;;;5.10;2.23;;;16.70;52.50;;;;;;5185245;28;20356;-67
2022/04/21 06:56:43;;;;;;;3.00;1.90;;;16.60;52.60;;;;;;5190349;28;20225;-67
2022/04/21 06:59:35;;;;;;;3.60;1.70;;;16.60;53.00;;;;;;5200250;28;20203;-67
2022/04/21 07:02:28;;;;;;;3.13;2.00;;;16.60;52.60;;;;;;5187992;28;20191;-67
2022/04/21 07:05:22;;;;;;;2.00;1.60;;;16.60;51.90;;;;;;5188843;28;20206;-67
2022/04/21 07:08:14;;;;;;;3.60;1.83;;;16.60;52.40;;;;;;5200516;28;20195;-66
2022/04/21 07:11:08;;;;;;;3.27;1.63;;;16.60;52.00;;;;;;5196417;28;20197;-64
2022/04/21 07:14:00;;;;;;;3.53;1.77;;;16.60;52.20;;;;;;5205801;28;20226;-67
2022/04/21 07:16:52;;;;;;;3.17;1.60;;;16.60;53.10;;;;;;5196450;28;20214;-67
2022/04/21 07:19:44;;;;;;;2.33;1.53;;;16.60;53.80;;;;;;5184628;28;20206;-67
2022/04/21 07:22:37;;;;;;;3.37;1.30;;;16.60;54.20;;;;;;5184979;28;20282;-67
2022/04/21 07:25:29;;;;;;;2.50;1.10;;;16.70;54.60;;;;;;5186010;28;20207;-69
2022/04/21 07:28:22;;;;;;;2.50;1.20;;;16.70;54.90;;;;;;5194948;28;20686;-69
2022/04/21 07:31:15;;;;;;;6.53;1.30;;;16.70;55.10;;;;;;5186507;28;20190;-70
2022/04/21 07:34:07;;;;;;;2.77;1.60;;;16.80;55.40;;;;;;5193753;28;20228;-69
2022/04/21 07:37:00;;;;;;;2.40;1.20;;;16.80;55.60;;;;;;5205034;28;20872;-69
2022/04/21 07:39:52;;;;;;;2.47;1.20;;;16.80;55.80;;;;;;5182509;28;20213;-69
2022/04/21 07:42:45;;;;;;;2.43;1.10;;;16.90;56.10;;;;;;5186350;28;20302;-69
2022/04/21 07:45:39;;;;;;;1.10;1.00;;;16.80;56.20;;;;;;5186353;28;20325;-69
2022/04/21 07:51:37;;;;;;;1.47;1.20;;;16.90;56.50;;;;;;5181282;28;20218;-68
2022/04/21 07:54:29;;;;;;;2.70;1.13;;;16.90;56.60;;;;;;5183956;28;20218;-70
2022/04/21 07:57:22;;;;;;;1.73;1.13;;;16.90;56.70;;;;;;5186366;28;20222;-70
2022/04/21 08:00:16;;;;;;;2.90;1.10;;;16.90;56.70;;;;;;5193958;28;20194;-63
2022/04/21 08:03:10;;;;;;;2.37;0.90;;;17.00;56.90;;;;;;5201988;28;20225;-64
2022/04/21 08:06:02;;;;;;;0.67;0.67;;;17.00;56.80;;;;;;5204923;28;20570;-64
2022/04/21 08:08:55;;;;;;;1.33;0.90;;;17.00;56.90;;;;;;5204296;28;20194;-64
2022/04/21 08:11:47;;;;;;;1.87;1.27;;;16.90;57.00;;;;;;5204392;28;20198;-64
2022/04/21 08:14:39;;;;;;;1.10;1.00;;;16.90;57.10;;;;;;5197789;28;20233;-64
2022/04/21 08:17:31;;;;;;;2.03;1.00;;;16.90;57.10;;;;;;5185796;28;20748;-64
2022/04/21 08:20:26;;;;;;;1.47;0.97;;;16.90;57.20;;;;;;5185032;28;20570;-64
2022/04/21 08:23:18;;;;;;;2.50;1.30;;;16.90;57.30;;;;;;5170371;28;20215;-64
2022/04/21 08:32:43;;;;;;;3.03;1.33;;;16.90;57.60;;;;;;5123116;28;20247;-64
2022/04/21 08:35:37;;;;;;;2.43;1.50;;;16.90;57.70;;;;;;5186193;28;20203;-64
2022/04/21 08:38:30;;;;;;;2.70;1.30;;;16.90;57.80;;;;;;5184692;28;20206;-64
2022/04/21 08:41:27;;;;;;;2.07;1.40;;;16.90;57.90;;;;;;5178003;28;20665;-64
2022/04/21 08:44:20;;;;;;;1.70;1.13;;;16.90;57.90;;;;;;5163363;28;20226;-63
2022/04/21 08:47:14;;;;;;;2.40;1.50;;;16.90;57.90;;;;;;5171214;28;20198;-64
2022/04/21 08:50:09;;;;;;;1.73;1.20;;;17.00;58.10;;;;;;5184235;28;20578;-64
2022/04/21 08:53:03;;;;;;;1.93;1.30;;;16.90;58.10;;;;;;5196239;28;20202;-64
2022/04/21 08:55:55;;;;;;;2.20;1.43;;;16.90;58.10;;;;;;5204197;28;20296;-68
2022/04/21 08:58:47;;;;;;;4.20;1.70;;;16.90;58.30;;;;;;5181272;28;20202;-63
2022/04/21 09:01:39;;;;;;;2.93;1.30;;;16.90;58.40;;;;;;5203050;28;20712;-64
2022/04/21 09:04:31;;;;;;;2.53;1.60;;;16.90;58.40;;;;;;5203567;28;20608;-65
2022/04/21 09:07:23;;;;;;;2.57;1.30;;;16.90;58.50;;;;;;5193712;28;20201;-64
2022/04/21 09:10:18;;;;;;;2.27;1.70;;;17.00;58.50;;;;;;5176782;28;20694;-63
2022/04/21 09:13:10;;;;;;;2.57;1.40;;;17.00;58.50;;;;;;5190290;28;20716;-65
2022/04/21 09:16:03;;;;;;;1.80;1.40;;;17.00;58.60;;;;;;5214619;28;20221;-64
2022/04/21 09:19:02;;;;;;;1.70;1.10;;;16.90;58.50;;;;;;5222183;28;20196;-64
2022/04/21 09:21:56;;;;;;;2.60;1.70;;;16.90;59.10;;;;;;5218913;28;20198;-63
2022/04/21 09:24:48;;;;;;;2.57;1.33;;;16.90;58.60;;;;;;5203623;28;20214;-64
2022/04/21 09:27:43;;;;;;;1.77;1.30;;;16.90;58.60;;;;;;5203635;28;20200;-64
2022/04/21 09:30:38;;;;;;;2.17;1.50;;;17.00;58.80;;;;;;5209850;28;20197;-64
2022/04/21 09:33:31;;;;;;;2.57;1.67;;;17.00;58.80;;;;;;5222024;28;20225;-64
2022/04/21 09:36:23;;;;;;;2.10;1.40;;;16.90;58.70;;;;;;5224204;28;20216;-64
2022/04/21 09:39:16;;;;;;;1.87;1.47;;;17.00;58.80;;;;;;5210291;28;20197;-64
2022/04/21 09:42:09;;;;;;;1.70;1.00;;;16.90;58.80;;;;;;5218262;28;20197;-63
2022/04/21 09:48:22;;;;;;;1.83;1.30;;;17.00;58.90;;;;;;5206714;28;20197;-65
2022/04/21 09:51:16;;;;;;;2.60;1.20;;;17.00;59.00;;;;;;5201590;28;20205;-65
2022/04/21 09:54:10;;;;;;;1.90;1.40;;;17.00;59.10;;;;;;5187842;28;20605;-63
2022/04/21 09:57:02;;;;;;;1.57;1.23;;;16.90;59.00;;;;;;5195515;28;20208;-64
2022/04/21 09:59:55;;;;;;;2.10;1.50;;;16.90;59.00;;;;;;5206852;28;20197;-64
2022/04/21 10:02:50;;;;;;;2.10;1.30;;;17.00;59.10;;;;;;5207617;28;20197;-65
2022/04/21 10:05:42;;;;;;;1.97;1.47;;;16.90;59.10;;;;;;5213275;28;20225;-64
2022/04/21 10:08:37;;;;;;;1.90;1.43;;;16.90;59.10;;;;;;5225977;28;20189;-64
2022/04/21 10:11:31;;;;;;;1.87;1.07;;;16.90;59.20;;;;;;5227423;28;20201;-69
2022/04/21 10:14:23;;;;;;;1.67;1.10;;;17.00;59.30;;;;;;5217335;28;20226;-68
2022/04/21 10:17:15;;;;;;;2.20;1.40;;;17.00;59.20;;;;;;5205275;28;20217;-68
2022/04/21 10:20:10;;;;;;;1.73;1.13;;;16.90;59.30;;;;;;5201743;28;20197;-67
2022/04/21 10:23:03;;;;;;;1.53;1.23;;;16.90;59.40;;;;;;5190850;28;20197;-68
2022/04/21 10:26:00;;;;;;;1.87;1.20;;;17.00;59.50;;;;;;5204099;28;20193;-68
2022/04/21 10:28:56;;;;;;;2.43;1.40;;;17.00;59.60;;;;;;5204662;28;20820;-67
2022/04/21 10:31:54;;;;;;;1.77;1.03;;;17.00;59.70;;;;;;5205358;28;20186;-67
2022/04/21 10:34:48;;;;;;;1.20;1.10;;;17.00;59.70;;;;;;5205100;28;20209;-67
2022/04/21 10:37:42;;;;;;;3.07;1.40;;;17.00;59.70;;;;;;5201342;28;21041;-68
2022/04/21 10:40:34;;;;;;;1.53;1.03;;;17.00;59.80;;;;;;5181621;28;20198;-68
2022/04/21 10:43:46;;;;;;;1.40;1.00;;;17.00;59.80;;;;;;5185230;28;20226;-67
2022/04/21 10:46:38;;;;;;;2.50;1.30;;;17.00;59.80;;;;;;5187091;28;20190;-68
2022/04/21 10:49:55;;;;;;;1.67;1.27;;;17.00;59.90;;;;;;5185164;28;20199;-68
2022/04/21 10:59:32;;;;;;;2.10;1.03;;;17.00;59.90;;;;;;5174673;28;20190;-68
2022/04/21 11:02:38;;;;;;;1.30;0.90;;;17.00;60.00;;;;;;5184835;28;20198;-67
2022/04/21 11:05:33;;;;;;;1.30;1.10;;;17.00;60.00;;;;;;5184660;28;20199;-68
2022/04/21 11:08:32;;;;;;;1.10;0.80;;;17.00;60.10;;;;;;5197761;28;20280;-68
2022/04/21 11:11:46;;;;;;;2.07;1.10;;;17.10;60.10;;;;;;5187533;28;20674;-68
2022/04/21 11:14:39;;;;;;;2.47;1.00;;;17.00;60.10;;;;;;5182557;28;96668;-66
2022/04/21 11:18:05;;;;;;;1.37;1.13;;;17.00;60.10;;;;;;5209027;28;20221;-68
2022/04/21 11:21:22;;;;;;;1.73;1.00;;;17.00;60.10;;;;;;5205378;28;20186;-67
2022/04/21 11:24:14;;;;;;;2.50;0.90;;;17.00;60.10;;;;;;5186144;28;20218;-68
2022/04/21 11:27:13;;;;;;;3.27;1.00;;;17.00;60.10;;;;;;5226309;28;20185;-66
2022/04/21 11:30:07;;;;;;;1.20;0.70;;;17.00;60.20;;;;;;5225896;28;20576;-67
2022/04/21 11:33:01;;;;;;;1.33;1.00;;;17.00;60.20;;;;;;5224005;28;20279;-67
2022/04/21 11:36:03;;;;;;;1.10;0.90;;;17.00;60.20;;;;;;5227787;28;20290;-67
2022/04/21 11:38:55;;;;;;;2.60;1.10;;;17.00;60.20;;;;;;5196039;28;20201;-68
2022/04/21 11:41:52;;;;;;;1.27;0.87;;;17.00;60.30;;;;;;5185364;28;20191;-68
2022/04/21 11:44:45;;;;;;;1.13;1.00;;;17.00;60.30;;;;;;5198359;28;20218;-67
2022/04/21 11:47:39;;;;;;;1.10;0.87;;;17.00;60.40;;;;;;5205934;28;20216;-65
2022/04/21 11:50:32;;;;;;;1.07;0.93;;;17.00;60.30;;;;;;5204956;28;20251;-67
2022/04/21 11:53:29;;;;;;;1.90;1.20;;;17.00;60.30;;;;;;5204910;28;20267;-67
2022/04/21 11:56:21;;;;;;;0.70;0.70;;;17.00;60.30;;;;;;5193723;28;20194;-68
2022/04/21 11:59:13;;;;;;;1.07;0.90;;;17.00;60.30;;;;;;5205386;28;20198;-67
2022/04/21 12:08:26;;;;;;;0.80;0.80;;;17.00;60.20;;;;;;5200624;28;20182;-68
2022/04/21 12:11:21;;;;;;;1.53;0.83;;;17.00;60.20;;;;;;5203501;28;20600;-67
2022/04/21 12:14:15;;;;;;;1.47;1.10;;;17.00;60.30;;;;;;5215180;28;20232;-67
2022/04/21 12:17:07;;;;;;;0.90;0.83;;;17.00;60.30;;;;;;5197023;28;20225;-67
2022/04/21 12:20:03;;;;;;;1.20;1.10;;;17.00;60.30;;;;;;5181137;28;20217;-67
2022/04/21 12:22:55;;;;;;;0.97;0.80;;;17.00;60.40;;;;;;5184893;28;20280;-67
2022/04/21 12:25:49;;;;;;;0.87;0.80;;;17.00;60.40;;;;;;5202110;28;20210;-67
2022/04/21 12:28:48;;;;;;;1.10;0.90;;;17.00;60.50;;;;;;5162086;28;20666;-67
2022/04/21 12:31:44;;;;;;;1.03;0.93;;;17.00;60.50;;;;;;5175683;28;20197;-70
2022/04/21 12:34:40;;;;;;;1.23;0.87;;;17.00;60.50;;;;;;5188238;28;20693;-70
2022/04/21 12:37:35;;;;;;;1.37;1.03;;;17.00;60.70;;;;;;5195943;28;20206;-69
2022/04/21 12:40:27;;;;;;;1.00;0.80;;;17.00;60.70;;;;;;5203734;28;20223;-68
2022/04/21 12:43:21;;;;;;;1.00;0.90;;;17.00;60.70;;;;;;5160206;28;20222;-70
2022/04/21 12:46:13;;;;;;;1.17;0.93;;;17.00;60.70;;;;;;5170661;28;20339;-69
2022/04/21 12:49:05;;;;;;;0.90;0.90;;;17.00;60.70;;;;;;5184090;28;20189;-68
2022/04/21 12:51:58;;;;;;;0.90;0.80;;;17.00;60.70;;;;;;5195644;28;20276;-69
2022/04/21 12:54:50;;;;;;;0.90;0.70;;;17.00;61.20;;;;;;5189624;28;20598;-69
2022/04/21 12:57:42;;;;;;;0.80;0.80;;;17.00;60.70;;;;;;5203251;28;20221;-66
2022/04/21 13:00:38;;;;;;;1.47;0.90;;;17.00;60.70;;;;;;5198427;28;20205;-66
2022/04/21 13:03:30;;;;;;;0.97;0.70;;;17.00;60.70;;;;;;5180417;28;20222;-66
2022/04/21 13:06:26;;;;;;;1.17;0.70;;;17.00;60.70;;;;;;5201785;28;20724;-66
2022/04/21 13:09:18;;;;;;;1.03;0.80;;;17.00;60.80;;;;;;5183031;28;20194;-66
2022/04/21 13:12:11;;;;;;;1.60;0.70;;;17.10;60.80;;;;;;5189078;28;20677;-66
2022/04/21 13:15:05;;;;;;;1.20;0.93;;;17.10;60.80;;;;;;5194095;28;20233;-66
2022/04/21 13:17:58;;;;;;;1.70;0.83;;;17.10;60.90;;;;;;5199516;28;20214;-65
2022/04/21 13:24:00;;;;;;;0.90;0.80;;;17.10;60.90;;;;;;5184043;28;20673;-67
2022/04/21 13:26:53;;;;;;;1.17;0.90;;;17.10;61.00;;;;;;5200044;28;20197;-66
2022/04/21 13:29:45;;;;;;;1.30;0.90;;;17.10;61.10;;;;;;5200597;28;20588;-67
2022/04/21 13:35:49;;;;;;;0.93;0.67;;;17.10;61.20;;;;;;5221315;28;20622;-67
2022/04/21 13:38:41;;;;;;;0.63;0.60;;;17.10;61.20;;;;;;5222839;28;20221;-69
2022/04/21 13:41:33;;;;;;;1.53;0.70;;;17.10;61.20;;;;;;5210575;28;20205;-69
2022/04/21 13:44:26;;;;;;;2.10;0.80;;;17.10;61.20;;;;;;5203777;28;20482;-70
2022/04/21 13:47:18;;;;;;;3.70;0.93;;;17.10;61.10;;;;;;5195628;28;20501;-70
2022/04/21 13:50:10;;;;;;;1.30;0.90;;;17.30;60.90;;;;;;5215090;28;20364;-69
2022/04/21 13:53:06;;;;;;;0.90;0.80;;;17.30;60.80;;;;;;5204589;28;20569;-69
2022/04/21 13:56:00;;;;;;;0.93;0.70;;;17.20;60.90;;;;;;5206202;28;20194;-69
2022/04/21 13:58:53;;;;;;;1.30;0.80;;;17.20;61.00;;;;;;5214075;28;20235;-69
2022/04/21 14:01:45;;;;;;;1.00;0.90;;;17.20;61.00;;;;;;5223632;28;20200;-69
2022/04/21 14:04:37;;;;;;;1.23;0.80;;;17.20;61.10;;;;;;5224274;28;20227;-68
2022/04/21 14:07:29;;;;;;;0.93;0.60;;;17.20;61.20;;;;;;5223449;28;20193;-68
2022/04/21 14:10:23;;;;;;;1.33;0.87;;;17.20;61.20;;;;;;5223298;28;20201;-69
2022/04/21 14:13:16;;;;;;;2.10;0.90;;;17.10;61.20;;;;;;5215026;28;20756;-69
2022/04/21 14:16:10;;;;;;;2.03;0.97;;;17.20;61.30;;;;;;5202690;28;20728;-68
2022/04/21 14:19:05;;;;;;;1.97;0.93;;;17.10;61.30;;;;;;5199554;28;20285;-69
2022/04/21 14:21:57;;;;;;;1.80;0.83;;;17.20;61.40;;;;;;5181733;28;20195;-70
2022/04/21 14:24:49;;;;;;;1.63;0.70;;;17.10;61.30;;;;;;5182095;28;20215;-70
2022/04/21 14:27:43;;;;;;;1.07;0.73;;;17.10;61.30;;;;;;5205177;28;20201;-69
2022/04/21 14:30:35;;;;;;;0.77;0.70;;;17.10;61.40;;;;;;5199452;28;20624;-69
2022/04/21 14:33:27;;;;;;;1.13;0.70;;;17.10;61.50;;;;;;5218337;28;20217;-69
2022/04/21 14:36:19;;;;;;;1.83;0.90;;;17.10;61.60;;;;;;5226667;28;20226;-69
2022/04/21 14:45:31;;;;;;;2.60;0.70;;;17.10;61.60;;;;;;5226852;28;20270;-69
2022/04/21 14:48:25;;;;;;;1.17;0.83;;;17.10;61.60;;;;;;5209929;28;20197;-69
2022/04/21 14:51:17;;;;;;;1.73;0.80;;;17.10;61.70;;;;;;5206424;28;20688;-69
2022/04/21 14:54:10;;;;;;;1.00;0.80;;;17.10;61.70;;;;;;5206632;28;20220;-69
2022/04/21 14:57:02;;;;;;;2.23;0.80;;;17.10;61.70;;;;;;5206683;28;20198;-69
2022/04/21 14:59:54;;;;;;;0.87;0.80;;;17.10;61.70;;;;;;5207191;28;20674;-69
2022/04/21 15:02:48;;;;;;;1.10;0.80;;;17.10;61.70;;;;;;5220300;28;20211;-69
2022/04/21 15:05:40;;;;;;;1.17;0.50;;;17.10;61.70;;;;;;5226913;28;20197;-69
2022/04/21 15:08:32;;;;;;;1.97;0.80;;;17.10;61.70;;;;;;5206617;28;20202;-69
2022/04/21 15:11:25;;;;;;;1.07;0.80;;;17.10;61.70;;;;;;5186418;28;20195;-69
2022/04/21 15:14:17;;;;;;;2.47;0.90;;;17.10;61.70;;;;;;5187139;28;20309;-69
2022/04/21 15:17:09;;;;;;;0.77;0.70;;;17.10;61.70;;;;;;5194240;28;20189;-69
2022/04/21 15:20:04;;;;;;;0.67;0.67;;;17.10;61.70;;;;;;5221520;28;20195;-69
2022/04/21 15:22:56;;;;;;;1.10;0.70;;;17.10;61.70;;;;;;5227221;28;20201;-69
2022/04/21 15:25:48;;;;;;;1.10;0.60;;;17.10;61.70;;;;;;5226162;28;20200;-69
2022/04/21 15:28:40;;;;;;;1.20;0.80;;;17.10;61.70;;;;;;5207878;28;20558;-69
2022/04/21 15:31:32;;;;;;;1.23;0.73;;;17.10;61.70;;;;;;5205968;28;20201;-69
2022/04/21 15:34:25;;;;;;;2.17;1.03;;;17.10;61.70;;;;;;5206083;28;20221;-69
2022/04/21 15:37:18;;;;;;;0.63;0.63;;;17.10;61.80;;;;;;5206072;28;20677;-69
2022/04/21 15:40:11;;;;;;;1.23;0.80;;;17.10;61.70;;;;;;5188597;28;20666;-66
2022/04/21 15:43:05;;;;;;;1.07;0.90;;;17.10;61.70;;;;;;5203857;28;20193;-69
2022/04/21 15:45:57;;;;;;;1.53;0.80;;;17.10;61.80;;;;;;5204039;28;20205;-68
2022/04/21 15:48:49;;;;;;;0.90;0.70;;;17.10;61.80;;;;;;5186553;28;20265;-69
2022/04/21 15:51:44;;;;;;;0.73;0.73;;;17.10;61.80;;;;;;5198964;28;20209;-69
2022/04/21 16:00:56;;;;;;;1.30;0.70;;;17.10;61.80;;;;;;5186084;28;20197;-69
2022/04/21 16:03:49;;;;;;;0.60;0.60;;;17.10;61.80;;;;;;5185096;28;20222;-68
2022/04/21 16:06:41;;;;;;;2.00;0.90;;;17.10;61.80;;;;;;5187901;28;20237;-69
2022/04/21 16:09:33;;;;;;;1.20;0.90;;;17.10;61.80;;;;;;5197264;28;20194;-69
2022/04/21 16:12:27;;;;;;;0.77;0.70;;;17.10;61.80;;;;;;5184885;28;20195;-69
2022/04/21 16:15:19;;;;;;;1.63;0.70;;;17.10;61.80;;;;;;5184803;28;20601;-69
2022/04/21 16:18:11;;;;;;;1.40;0.80;;;17.10;61.80;;;;;;5183754;28;20211;-66